Latest Weather Observations for Nhill Aerodrome

IDV60801

Issued at 12:31 pm EDT Saturday 20 December 2014 (issued every 30 minutes, with the page automatically refreshed every 10 minutes)

About weather observations | Map of weather stations | Latest weather observations for VIC | Other Formats
Station Details ID: 078015 Name: NHILL AERODROME Lat: -36.31 Lon: 141.65 Height: 138.9 m
Data from the previous 72 hours. | See also: Recent months at Nhill Aerodrome
Date/Time
EDT
Temp
°C
App
Temp
°C
Dew
Point
Rel
Hum
%
Delta-T
°C
Wind Press
QNH
hPa
Press
MSL
hPa
Rain
since 9 am
mm
Dir
 
Spd
km/h
Gust
km/h
Spd
kts
Gust
kts
20/12:30pm 23.0 20.1 6.3 34 8.6 WSW 11 19 6 10 1018.7 1018.3 0.0
20/12:00pm 21.5 18.2 6.2 37 7.7 WSW 13 20 7 11 1019.2 1018.8 0.0
20/11:30am 20.9 17.6 6.4 39 7.4 W 13 17 7 9 1019.3 1018.9 0.0
20/11:00am 19.8 17.3 6.5 42 6.7 W 9 15 5 8 1019.6 1019.2 0.0
20/10:30am 19.4 17.5 6.8 44 6.4 NW 6 13 3 7 1019.9 1019.5 0.0
20/10:00am 18.2 16.2 7.0 48 5.6 SSW 7 9 4 5 1020.2 1019.8 0.0
20/09:30am 16.9 14.8 6.7 51 5.1 SSE 7 11 4 6 1020.3 1019.9 0.0
20/09:00am 16.1 13.7 7.1 55 4.5 S 9 15 5 8 1020.2 1019.8 0.0
20/08:30am 15.7 13.3 7.0 56 4.3 SE 9 15 5 8 1019.9 1019.5 0.0
20/08:00am 14.3 12.7 6.2 58 3.9 SSE 4 7 2 4 1019.7 1019.3 0.0
20/07:30am 13.1 12.1 5.5 60 3.6 CALM 0 0 0 0 1019.3 1018.9 0.0
20/07:00am 11.6 10.6 5.7 67 2.8 CALM 0 0 0 0 1018.9 1018.5 0.0
20/06:30am 9.4 8.2 4.6 72 2.2 CALM 0 6 0 3 1018.7 1018.3 0.0
20/05:30am 9.1 6.1 4.1 71 2.2 SSE 9 9 5 5 1018.5 1018.1 0.0
20/05:00am 9.6 6.7 4.6 71 2.2 SSE 9 9 5 5 1018.3 1017.9 0.0
20/04:30am 9.9 7.3 4.3 68 2.5 SSE 7 7 4 4 1018.2 1017.8 0.0
20/04:00am 10.1 7.5 4.0 66 2.7 SSE 7 9 4 5 1018.3 1017.9 0.0
20/03:30am 10.9 8.4 4.6 65 2.9 SSE 7 9 4 5 1018.5 1018.1 0.0
20/03:00am 10.7 7.8 4.4 65 2.8 SSE 9 9 5 5 1018.6 1018.2 0.0
20/02:30am 11.0 8.0 4.2 63 3.1 SSE 9 11 5 6 1018.9 1018.5 0.0
20/02:00am 11.6 8.2 4.1 60 3.4 S 11 13 6 7 1019.1 1018.7 0.0
20/01:30am 12.0 8.2 4.0 58 3.6 SSW 13 13 7 7 1019.4 1019.0 0.0
20/01:00am 12.8 9.1 4.3 56 3.9 SSW 13 15 7 8 1019.6 1019.2 0.0
20/12:30am 13.8 9.7 4.4 53 4.3 SSW 15 19 8 10 1019.7 1019.3 0.0
20/12:00am 14.7 9.9 4.7 51 4.7 SSW 19 20 10 11 1019.8 1019.4 0.0
 
Date/Time
EDT
Temp
°C
App
Temp
°C
Dew
Point
Rel
Hum
%
Delta-T
°C
Wind Press
QNH
hPa
Press
MSL
hPa
Rain
since 9 am
mm
Dir
 
Spd
km/h
Gust
km/h
Spd
kts
Gust
kts
19/11:30pm 15.5 10.2 4.8 49 5.0 SSW 22 28 12 15 1019.8 1019.4 0.0
19/11:00pm 16.3 11.0 5.0 47 5.4 SSW 22 30 12 16 1019.8 1019.4 0.0
19/10:30pm 17.0 11.6 4.7 44 5.9 SSW 22 28 12 15 1019.6 1019.2 0.0
19/10:00pm 18.2 12.1 4.7 41 6.5 SSW 26 35 14 19 1019.2 1018.8 0.0
19/09:30pm 19.0 13.9 4.0 37 7.2 SSW 20 28 11 15 1019.0 1018.6 0.0
19/09:00pm 19.9 14.7 3.6 34 7.8 SW 20 30 11 16 1018.7 1018.3 0.0
19/08:30pm 21.2 14.5 3.9 32 8.4 SW 28 35 15 19 1018.5 1018.1 0.0
19/08:00pm 22.5 16.6 4.1 30 9.0 SW 24 32 13 17 1018.0 1017.6 0.0
19/07:30pm 23.2 16.6 4.2 29 9.4 SW 28 37 15 20 1017.7 1017.3 0.0
19/07:00pm 23.6 17.7 4.0 28 9.7 SW 24 35 13 19 1017.4 1017.0 0.0
19/06:30pm 24.1 17.8 4.0 27 10.0 SSW 26 37 14 20 1017.3 1016.9 0.0
19/06:00pm 24.0 17.7 3.9 27 9.9 SSW 26 39 14 21 1017.2 1016.8 0.0
19/05:30pm 23.7 17.1 4.1 28 9.7 SW 28 35 15 19 1017.2 1016.8 0.0
19/05:00pm 24.7 18.9 4.5 27 10.1 WSW 24 39 13 21 1017.3 1016.9 0.0
19/04:30pm 23.4 17.9 3.9 28 9.6 SW 22 37 12 20 1017.5 1017.1 0.0
19/04:00pm 23.4 17.4 3.4 27 9.7 SW 24 41 13 22 1017.6 1017.2 0.0
19/03:30pm 24.0 18.1 3.9 27 9.9 SW 24 39 13 21 1017.7 1017.3 0.0
19/03:00pm 23.9 18.8 4.3 28 9.7 WSW 20 28 11 15 1017.8 1017.4 0.0
19/02:30pm 22.8 16.8 3.4 28 9.4 SSW 24 35 13 19 1018.0 1017.6 0.0
19/02:00pm 22.5 17.5 4.5 31 8.9 WSW 20 44 11 24 1018.3 1017.9 0.0
19/01:30pm 20.7 15.8 3.9 33 8.1 WSW 19 33 10 18 1018.5 1018.1 0.0
19/01:00pm 20.2 16.1 4.3 35 7.7 SW 15 28 8 15 1018.7 1018.3 0.0
19/12:30pm 19.8 15.3 4.3 36 7.5 SW 17 28 9 15 1018.9 1018.5 0.0
19/12:00pm 18.6 13.6 4.4 39 6.8 WSW 20 32 11 17 1019.0 1018.6 0.0
19/11:30am 18.1 13.2 4.3 40 6.6 SW 19 28 10 15 1018.9 1018.5 0.0
19/11:00am 18.0 13.6 4.6 41 6.4 SSW 17 24 9 13 1019.2 1018.8 0.0
19/10:30am 16.8 12.8 4.8 45 5.7 SSW 15 24 8 13 1019.2 1018.8 0.0
19/10:00am 17.0 12.3 5.0 45 5.8 SSW 19 28 10 15 1019.2 1018.8 0.0
19/09:30am 16.1 11.2 4.2 45 5.6 SSW 19 28 10 15 1019.3 1018.9 0.0
19/09:00am 15.2 10.4 4.9 50 4.9 SSW 19 28 10 15 1019.0 1018.6 0.0
19/08:30am 14.1 10.3 6.0 58 3.9 S 15 20 8 11 1018.5 1018.1 0.0
19/08:00am 12.8 10.7 6.6 66 3.0 SW 7 15 4 8 1018.4 1018.0 0.0
19/07:30am 10.8 9.5 6.0 72 2.2 SW 2 7 1 4 1018.0 1017.6 0.0
19/07:00am 9.4 8.3 5.2 75 1.9 CALM 0 0 0 0 1017.6 1017.2 0.0
19/06:30am 8.3 6.1 5.2 81 1.4 SW 6 7 3 4 1017.4 1017.0 0.0
19/06:00am 7.9 5.6 5.0 82 1.3 WSW 6 9 3 5 1017.3 1016.9 0.0
19/05:30am 7.9 5.4 4.5 79 1.5 WSW 7 9 4 5 1016.9 1016.5 0.0
19/05:00am 8.3 5.4 4.5 77 1.7 WSW 9 11 5 6 1016.7 1016.3 0.0
19/04:30am 8.1 5.4 3.9 75 1.8 SW 7 9 4 5 1016.3 1015.9 0.0
19/04:00am 8.1 5.4 3.8 74 1.9 SW 7 9 4 5 1016.0 1015.6 0.0
19/03:30am 8.7 6.0 3.9 72 2.1 SW 7 7 4 4 1016.0 1015.6 0.0
19/03:00am 8.9 6.5 4.1 72 2.1 SW 6 7 3 4 1016.1 1015.7 0.0
19/02:30am 10.0 6.7 4.4 68 2.5 SW 11 13 6 7 1016.2 1015.8 0.0
19/02:00am 10.2 6.1 4.1 66 2.7 SW 15 17 8 9 1016.3 1015.9 0.0
19/01:30am 10.5 6.3 4.0 64 2.9 SW 15 17 8 9 1016.2 1015.8 0.0
19/01:00am 10.7 6.5 3.7 62 3.1 SW 15 17 8 9 1016.1 1015.7 0.0
19/12:30am 11.6 7.1 4.1 60 3.4 SW 17 19 9 10 1016.0 1015.6 0.0
19/12:00am 12.1 8.0 4.3 59 3.5 SW 15 17 8 9 1015.7 1015.3 0.0
 
Date/Time
EDT
Temp
°C
App
Temp
°C
Dew
Point
Rel
Hum
%
Delta-T
°C
Wind Press
QNH
hPa
Press
MSL
hPa
Rain
since 9 am
mm
Dir
 
Spd
km/h
Gust
km/h
Spd
kts
Gust
kts
18/11:30pm 12.7 8.2 4.4 57 3.8 SW 17 20 9 11 1015.5 1015.1 0.0
18/11:00pm 13.2 8.6 3.8 53 4.3 SW 17 19 9 10 1015.3 1014.8 0.0
18/10:30pm 14.5 9.4 3.9 49 4.9 SW 20 26 11 14 1015.0 1014.5 0.0
18/10:00pm 15.5 9.6 3.9 46 5.4 SW 24 32 13 17 1014.8 1014.3 0.0
18/09:30pm 16.1 10.6 3.9 44 5.7 SW 22 30 12 16 1014.3 1013.8 0.0
18/09:00pm 16.7 10.5 2.0 37 6.6 WSW 24 33 13 18 1013.8 1013.3 0.0
18/08:30pm 17.5 10.1 1.9 35 7.1 WSW 30 39 16 21 1013.4 1012.9 0.0
18/08:00pm 18.7 11.1 2.9 35 7.4 WSW 32 43 17 23 1012.8 1012.4 0.0
18/07:30pm 19.3 11.5 2.6 33 7.8 SW 33 43 18 23 1012.2 1011.8 0.0
18/07:00pm 20.3 12.2 3.1 32 8.2 WSW 35 46 19 25 1011.4 1011.0 0.0
18/06:30pm 20.8 11.9 3.1 31 8.4 WSW 39 52 21 28 1011.0 1010.6 0.0
18/06:00pm 20.5 12.0 3.3 32 8.2 WSW 37 59 20 32 1010.6 1010.2 0.0
18/05:56pm 21.8 13.8 3.9 31 8.7 WSW 35 54 19 29 1010.5 1010.1 0.0
18/05:30pm 21.7 13.5 4.7 33 8.4 WSW 37 54 20 29 1010.2 1009.8 0.0
18/05:16pm 21.5 13.1 5.4 35 8.0 WSW 39 57 21 31 1010.3 1009.9 0.0
18/05:00pm 21.3 13.1 6.4 38 7.6 WSW 39 52 21 28 1010.3 1009.9 0.0
18/04:30pm 20.0 11.0 7.4 44 6.5 WSW 44 63 24 34 1010.3 1009.9 0.0
18/04:08pm 21.3 13.3 7.5 41 7.2 WSW 39 57 21 31 1010.3 1009.9 0.0
18/04:00pm 21.2 12.4 7.4 41 7.2 WSW 43 59 23 32 1010.3 1009.9 0.0
18/03:30pm 19.1 11.2 9.3 53 5.2 SW 41 54 22 29 1010.3 1009.9 0.0
18/03:00pm 19.0 9.8 9.5 54 5.1 WSW 48 59 26 32 1009.8 1009.4 0.0
18/02:56pm 19.6 10.5 8.6 49 5.8 WSW 46 57 25 31 1009.7 1009.3 0.0
18/02:40pm 21.2 12.2 7.1 40 7.3 W 44 63 24 34 1009.3 1008.9 0.0
18/02:30pm 21.7 12.2 6.8 38 7.7 WSW 46 61 25 33 1009.3 1008.9 0.0
18/02:18pm 21.0 11.0 6.2 38 7.5 WSW 48 67 26 36 1009.3 1008.9 0.0
18/02:00pm 20.4 9.4 6.7 41 7.0 WSW 54 67 29 36 1009.2 1008.7 0.0
18/01:38pm 21.3 10.2 8.9 45 6.6 WSW 57 76 31 41 1009.0 1008.5 0.0
18/01:30pm 20.6 9.5 8.6 46 6.3 WSW 57 76 31 41 1008.7 1008.2 0.0
18/01:27pm 21.7 12.0 8.9 44 6.8 W 50 74 27 40 1008.5 1008.0 0.0
18/01:21pm 21.8 13.4 5.7 35 8.1 W 39 59 21 32 1008.3 1007.8 0.0
18/01:00pm 22.3 14.6 6.9 37 8.0 W 37 52 20 28 1008.5 1008.0 0.0
18/12:30pm 21.5 12.5 6.2 37 7.8 W 43 56 23 30 1008.4 1007.9 0.0
18/12:21pm 21.3 13.9 6.8 39 7.4 WNW 35 56 19 30 1008.4 1007.9 0.0
18/12:00pm 20.6 13.7 7.2 42 6.9 WNW 33 50 18 27 1008.6 1008.1 0.0
18/11:56am 21.2 14.5 7.4 41 7.2 WNW 32 50 17 27 1008.6 1008.1 0.0
18/11:30am 18.4 11.2 7.5 49 5.6 W 35 48 19 26 1009.0 1008.5 0.0
18/11:00am 18.3 9.8 6.8 47 5.8 W 41 50 22 27 1009.4 1009.0 0.0
18/10:30am 19.0 12.1 7.1 46 6.0 W 33 46 18 25 1009.1 1008.6 0.0
18/10:00am 18.4 11.7 7.2 48 5.7 WNW 32 48 17 26 1009.0 1008.5 0.0
18/09:30am 18.0 11.9 6.8 48 5.6 WNW 28 39 15 21 1008.7 1008.2 0.0
18/09:00am 17.3 11.4 7.4 52 5.0 W 28 39 15 21 1008.6 1008.1 0.0
18/08:30am 16.5 11.6 6.9 53 4.8 W 22 30 12 16 1008.5 1008.0 0.0
18/08:00am 14.1 11.3 5.2 55 4.2 WNW 9 11 5 6 1008.3 1007.8 0.0
18/07:30am 11.7 8.7 4.2 60 3.4 WNW 9 11 5 6 1008.1 1007.6 0.0
18/07:00am 10.8 7.9 4.5 65 2.9 NNW 9 11 5 6 1007.8 1007.3 0.0
18/06:30am 9.9 6.9 4.1 67 2.6 NNW 9 11 5 6 1007.5 1007.0 0.0
18/06:00am 9.9 6.8 3.6 65 2.8 WNW 9 9 5 5 1007.2 1006.7 0.0
18/05:30am 10.2 8.8 3.5 63 2.9 CALM 0 7 0 4 1007.1 1006.6 0.0
18/05:00am 10.6 9.3 3.9 63 3.0 CALM 0 0 0 0 1006.7 1006.2 0.0
18/04:30am 10.9 9.6 3.9 62 3.1 CALM 0 2 0 1 1006.5 1006.0 0.0
18/04:00am 11.3 8.7 4.1 61 3.3 SW 7 9 4 5 1006.4 1005.9 0.0
18/03:30am 11.4 8.7 3.7 59 3.4 SW 7 9 4 5 1006.6 1006.1 0.0
18/03:00am 12.2 8.0 3.7 56 3.8 SW 15 20 8 11 1007.0 1006.5 0.0
18/02:30am 11.9 7.5 2.6 53 4.1 SW 15 17 8 9 1007.1 1006.6 0.0
18/02:00am 12.4 9.1 2.3 50 4.4 SW 9 11 5 6 1007.1 1006.6 0.0
18/01:30am 12.5 9.1 1.8 48 4.6 SW 9 11 5 6 1007.1 1006.6 0.0
18/01:00am 13.5 9.7 1.8 45 5.1 SW 11 13 6 7 1007.3 1006.8 0.0
18/12:30am 13.9 10.1 1.9 44 5.3 SW 11 13 6 7 1007.4 1006.9 0.0
18/12:00am 14.4 9.8 1.7 42 5.6 SW 15 17 8 9 1007.5 1007.0 0.0
 
Date/Time
EDT
Temp
°C
App
Temp
°C
Dew
Point
Rel
Hum
%
Delta-T
°C
Wind Press
QNH
hPa
Press
MSL
hPa
Rain
since 9 am
mm
Dir
 
Spd
km/h
Gust
km/h
Spd
kts
Gust
kts
17/11:30pm 14.3 10.4 1.2 41 5.7 SW 11 13 6 7 1007.4 1006.9 0.0
17/11:00pm 14.4 10.5 1.0 40 5.8 SSW 11 15 6 8 1007.3 1006.8 0.0
17/10:30pm 15.2 10.9 1.0 38 6.2 SSW 13 15 7 8 1007.3 1006.8 0.0
17/10:00pm 16.7 12.4 1.2 35 6.9 SW 13 15 7 8 1007.3 1006.8 0.0
17/09:30pm 18.4 13.8 1.4 32 7.7 SW 15 17 8 9 1007.3 1006.8 0.0
17/09:00pm 19.7 14.8 2.1 31 8.2 WSW 17 24 9 13 1007.5 1007.0 0.0
17/08:30pm 21.1 15.7 2.4 29 8.8 WSW 20 26 11 14 1007.3 1006.8 0.0
17/08:00pm 22.3 16.6 2.9 28 9.3 WSW 22 30 12 16 1007.2 1006.7 0.0
17/07:30pm 22.8 17.6 2.3 26 9.8 WSW 19 26 10 14 1006.8 1006.3 0.0
17/07:00pm 23.2 18.3 2.1 25 10.1 W 17 28 9 15 1006.6 1006.1 0.0
17/06:30pm 23.5 18.7 2.4 25 10.1 WSW 17 28 9 15 1006.5 1006.0 0.0
17/06:00pm 23.4 18.4 3.4 27 9.8 W 19 28 10 15 1006.6 1006.1 0.0
17/05:30pm 23.4 18.4 3.4 27 9.8 W 19 26 10 14 1006.8 1006.3 0.0
17/05:00pm 23.0 17.7 3.0 27 9.7 WSW 20 33 11 18 1007.0 1006.5 0.0
17/04:30pm 23.7 19.0 3.1 26 10.0 W 17 28 9 15 1007.1 1006.6 0.0
17/04:00pm 23.5 19.1 2.9 26 10.0 WSW 15 28 8 15 1007.3 1006.8 0.0
17/03:30pm 22.5 17.5 3.6 29 9.2 WSW 19 30 10 16 1007.5 1007.0 0.0
17/03:00pm 21.3 16.9 2.6 29 8.9 W 15 24 8 13 1007.8 1007.3 0.0
17/02:30pm 21.1 15.0 2.9 30 8.6 W 24 37 13 20 1008.2 1007.7 0.0
17/02:00pm 21.2 16.1 3.0 30 8.7 WSW 19 28 10 15 1008.7 1008.2 0.0
17/01:30pm 20.6 15.9 3.3 32 8.3 W 17 37 9 20 1009.0 1008.5 0.0
17/01:00pm 19.2 13.9 3.0 34 7.6 W 20 32 11 17 1009.4 1009.0 0.0

Other Formats:

Comma delimited format used in spreadsheet applications
http://www.bom.gov.au/fwo/IDV60801/IDV60801.94827.axf

JavaScript Object Notation format (JSON) in row-major order
http://www.bom.gov.au/fwo/IDV60801/IDV60801.94827.json